sensor_id;sensor_type;location;lat;lon;timestamp;P1;durP1;ratioP1;P2;durP2;ratioP2
11620;SDS011;5866;49.094;11.900;2023-02-01T00:00:01;6.03;;;4.67;;
11620;SDS011;5866;49.094;11.900;2023-02-01T00:02:32;5.60;;;5.03;;
11620;SDS011;5866;49.094;11.900;2023-02-01T00:04:59;6.43;;;4.67;;
11620;SDS011;5866;49.094;11.900;2023-02-01T00:07:27;6.13;;;5.13;;
11620;SDS011;5866;49.094;11.900;2023-02-01T00:09:54;5.97;;;5.07;;
11620;SDS011;5866;49.094;11.900;2023-02-01T00:12:22;4.80;;;4.37;;
11620;SDS011;5866;49.094;11.900;2023-02-01T00:14:49;5.27;;;4.40;;
11620;SDS011;5866;49.094;11.900;2023-02-01T00:17:17;4.77;;;4.30;;
11620;SDS011;5866;49.094;11.900;2023-02-01T00:19:45;5.00;;;4.37;;
11620;SDS011;5866;49.094;11.900;2023-02-01T00:22:13;4.70;;;4.30;;
11620;SDS011;5866;49.094;11.900;2023-02-01T00:24:41;5.10;;;4.70;;
11620;SDS011;5866;49.094;11.900;2023-02-01T00:27:08;4.63;;;4.23;;
11620;SDS011;5866;49.094;11.900;2023-02-01T00:29:36;4.30;;;3.90;;
11620;SDS011;5866;49.094;11.900;2023-02-01T00:32:03;4.40;;;4.00;;
11620;SDS011;5866;49.094;11.900;2023-02-01T00:34:31;4.60;;;4.20;;
11620;SDS011;5866;49.094;11.900;2023-02-01T00:37:00;5.23;;;4.73;;
11620;SDS011;5866;49.094;11.900;2023-02-01T00:39:27;4.53;;;4.13;;
11620;SDS011;5866;49.094;11.900;2023-02-01T00:41:55;5.03;;;4.53;;
11620;SDS011;5866;49.094;11.900;2023-02-01T00:44:22;8.40;;;4.93;;
11620;SDS011;5866;49.094;11.900;2023-02-01T00:46:50;6.17;;;4.37;;
11620;SDS011;5866;49.094;11.900;2023-02-01T00:49:17;5.10;;;4.60;;
11620;SDS011;5866;49.094;11.900;2023-02-01T00:51:45;5.40;;;4.90;;
11620;SDS011;5866;49.094;11.900;2023-02-01T00:54:14;5.17;;;4.63;;
11620;SDS011;5866;49.094;11.900;2023-02-01T00:56:41;6.03;;;5.40;;
11620;SDS011;5866;49.094;11.900;2023-02-01T00:59:10;5.30;;;4.80;;
11620;SDS011;5866;49.094;11.900;2023-02-01T01:01:38;6.20;;;4.90;;
11620;SDS011;5866;49.094;11.900;2023-02-01T01:04:06;5.93;;;5.33;;
11620;SDS011;5866;49.094;11.900;2023-02-01T01:06:34;7.43;;;4.53;;
11620;SDS011;5866;49.094;11.900;2023-02-01T01:09:03;4.97;;;4.43;;
11620;SDS011;5866;49.094;11.900;2023-02-01T01:11:33;5.70;;;4.90;;
11620;SDS011;5866;49.094;11.900;2023-02-01T01:14:03;6.27;;;5.40;;
11620;SDS011;5866;49.094;11.900;2023-02-01T01:16:32;6.23;;;5.50;;
11620;SDS011;5866;49.094;11.900;2023-02-01T01:19:00;8.00;;;5.90;;
11620;SDS011;5866;49.094;11.900;2023-02-01T01:21:28;5.83;;;5.33;;
11620;SDS011;5866;49.094;11.900;2023-02-01T01:23:57;10.60;;;5.80;;
11620;SDS011;5866;49.094;11.900;2023-02-01T01:26:28;6.23;;;5.30;;
11620;SDS011;5866;49.094;11.900;2023-02-01T01:28:58;7.07;;;5.50;;
11620;SDS011;5866;49.094;11.900;2023-02-01T01:31:26;7.90;;;5.80;;
11620;SDS011;5866;49.094;11.900;2023-02-01T01:33:55;6.67;;;5.03;;
11620;SDS011;5866;49.094;11.900;2023-02-01T01:36:24;6.93;;;6.30;;
11620;SDS011;5866;49.094;11.900;2023-02-01T01:38:53;6.33;;;5.37;;
11620;SDS011;5866;49.094;11.900;2023-02-01T01:41:21;5.90;;;5.40;;
11620;SDS011;5866;49.094;11.900;2023-02-01T01:43:51;5.87;;;4.70;;
11620;SDS011;5866;49.094;11.900;2023-02-01T01:46:23;6.23;;;5.00;;
11620;SDS011;5866;49.094;11.900;2023-02-01T01:48:53;5.70;;;5.20;;
11620;SDS011;5866;49.094;11.900;2023-02-01T01:51:25;6.67;;;5.20;;
11620;SDS011;5866;49.094;11.900;2023-02-01T01:53:57;5.77;;;5.07;;
11620;SDS011;5866;49.094;11.900;2023-02-01T01:56:29;6.23;;;3.93;;
11620;SDS011;5866;49.094;11.900;2023-02-01T01:58:59;7.77;;;6.50;;
11620;SDS011;5866;49.094;11.900;2023-02-01T02:01:28;5.00;;;4.50;;
11620;SDS011;5866;49.094;11.900;2023-02-01T02:03:56;6.67;;;5.97;;
11620;SDS011;5866;49.094;11.900;2023-02-01T02:06:27;9.07;;;5.87;;
11620;SDS011;5866;49.094;11.900;2023-02-01T02:09:02;6.53;;;5.50;;
11620;SDS011;5866;49.094;11.900;2023-02-01T02:11:32;5.90;;;5.30;;
11620;SDS011;5866;49.094;11.900;2023-02-01T02:14:00;7.60;;;5.83;;
11620;SDS011;5866;49.094;11.900;2023-02-01T02:16:38;7.47;;;6.87;;
11620;SDS011;5866;49.094;11.900;2023-02-01T02:19:20;8.33;;;7.63;;
11620;SDS011;5866;49.094;11.900;2023-02-01T02:22:04;7.07;;;6.47;;
11620;SDS011;5866;49.094;11.900;2023-02-01T02:24:50;6.13;;;5.23;;
11620;SDS011;5866;49.094;11.900;2023-02-01T02:27:37;7.30;;;5.30;;
11620;SDS011;5866;49.094;11.900;2023-02-01T02:30:31;5.53;;;4.90;;
11620;SDS011;5866;49.094;11.900;2023-02-01T02:33:28;5.30;;;4.80;;
11620;SDS011;5866;49.094;11.900;2023-02-01T02:36:16;5.40;;;4.87;;
11620;SDS011;5866;49.094;11.900;2023-02-01T02:38:50;6.23;;;5.13;;
11620;SDS011;5866;49.094;11.900;2023-02-01T02:41:25;5.33;;;4.83;;
11620;SDS011;5866;49.094;11.900;2023-02-01T02:44:23;8.77;;;4.83;;
11620;SDS011;5866;49.094;11.900;2023-02-01T02:47:21;6.10;;;5.57;;
11620;SDS011;5866;49.094;11.900;2023-02-01T02:50:01;5.67;;;4.90;;
11620;SDS011;5866;49.094;11.900;2023-02-01T02:52:56;7.07;;;6.03;;
11620;SDS011;5866;49.094;11.900;2023-02-01T02:55:46;6.47;;;5.47;;
11620;SDS011;5866;49.094;11.900;2023-02-01T02:58:15;6.07;;;5.47;;
11620;SDS011;5866;49.094;11.900;2023-02-01T03:01:02;9.33;;;6.00;;
11620;SDS011;5866;49.094;11.900;2023-02-01T03:03:48;7.40;;;6.70;;
11620;SDS011;5866;49.094;11.900;2023-02-01T03:06:37;6.10;;;5.50;;
11620;SDS011;5866;49.094;11.900;2023-02-01T03:09:12;8.13;;;6.07;;
11620;SDS011;5866;49.094;11.900;2023-02-01T03:11:42;5.50;;;4.97;;
11620;SDS011;5866;49.094;11.900;2023-02-01T03:14:29;5.43;;;4.77;;
11620;SDS011;5866;49.094;11.900;2023-02-01T03:17:02;4.97;;;4.57;;
11620;SDS011;5866;49.094;11.900;2023-02-01T03:19:37;6.40;;;5.13;;
11620;SDS011;5866;49.094;11.900;2023-02-01T03:22:11;7.33;;;6.63;;
11620;SDS011;5866;49.094;11.900;2023-02-01T03:24:42;8.00;;;6.57;;
11620;SDS011;5866;49.094;11.900;2023-02-01T03:27:15;5.37;;;4.83;;
11620;SDS011;5866;49.094;11.900;2023-02-01T03:29:48;6.23;;;5.43;;
11620;SDS011;5866;49.094;11.900;2023-02-01T03:32:18;8.43;;;7.63;;
11620;SDS011;5866;49.094;11.900;2023-02-01T03:34:46;7.30;;;6.80;;
11620;SDS011;5866;49.094;11.900;2023-02-01T03:37:17;9.20;;;7.70;;
11620;SDS011;5866;49.094;11.900;2023-02-01T03:39:52;7.97;;;7.27;;
11620;SDS011;5866;49.094;11.900;2023-02-01T03:42:24;14.03;;;13.03;;
11620;SDS011;5866;49.094;11.900;2023-02-01T03:45:00;8.57;;;7.93;;
11620;SDS011;5866;49.094;11.900;2023-02-01T03:47:33;7.77;;;7.07;;
11620;SDS011;5866;49.094;11.900;2023-02-01T03:50:05;11.20;;;10.07;;
11620;SDS011;5866;49.094;11.900;2023-02-01T03:52:36;7.13;;;6.43;;
11620;SDS011;5866;49.094;11.900;2023-02-01T03:55:07;7.57;;;5.43;;
11620;SDS011;5866;49.094;11.900;2023-02-01T03:57:38;5.07;;;4.57;;
11620;SDS011;5866;49.094;11.900;2023-02-01T04:00:15;6.33;;;5.00;;
11620;SDS011;5866;49.094;11.900;2023-02-01T04:02:44;6.70;;;6.10;;
11620;SDS011;5866;49.094;11.900;2023-02-01T04:05:11;5.77;;;5.20;;
11620;SDS011;5866;49.094;11.900;2023-02-01T04:07:40;6.67;;;5.27;;
11620;SDS011;5866;49.094;11.900;2023-02-01T04:10:08;6.93;;;4.63;;
11620;SDS011;5866;49.094;11.900;2023-02-01T04:12:38;4.90;;;4.50;;
11620;SDS011;5866;49.094;11.900;2023-02-01T04:15:06;5.40;;;4.90;;
11620;SDS011;5866;49.094;11.900;2023-02-01T04:17:34;5.70;;;5.20;;
11620;SDS011;5866;49.094;11.900;2023-02-01T04:20:01;6.30;;;5.80;;
11620;SDS011;5866;49.094;11.900;2023-02-01T04:22:30;4.43;;;4.13;;
11620;SDS011;5866;49.094;11.900;2023-02-01T04:24:59;4.77;;;4.37;;
11620;SDS011;5866;49.094;11.900;2023-02-01T04:27:27;5.23;;;4.60;;
11620;SDS011;5866;49.094;11.900;2023-02-01T04:29:54;6.03;;;5.50;;
11620;SDS011;5866;49.094;11.900;2023-02-01T04:32:23;5.87;;;5.27;;
11620;SDS011;5866;49.094;11.900;2023-02-01T04:34:51;5.33;;;4.73;;
11620;SDS011;5866;49.094;11.900;2023-02-01T04:37:18;5.13;;;4.40;;
11620;SDS011;5866;49.094;11.900;2023-02-01T04:39:46;7.00;;;5.47;;
11620;SDS011;5866;49.094;11.900;2023-02-01T04:42:14;5.07;;;4.57;;
11620;SDS011;5866;49.094;11.900;2023-02-01T04:44:42;3.43;;;3.10;;
11620;SDS011;5866;49.094;11.900;2023-02-01T04:47:09;4.93;;;4.53;;
11620;SDS011;5866;49.094;11.900;2023-02-01T04:49:37;4.77;;;4.37;;
11620;SDS011;5866;49.094;11.900;2023-02-01T04:52:04;4.30;;;4.00;;
11620;SDS011;5866;49.094;11.900;2023-02-01T04:54:32;5.33;;;4.93;;
11620;SDS011;5866;49.094;11.900;2023-02-01T04:57:00;5.93;;;5.10;;
11620;SDS011;5866;49.094;11.900;2023-02-01T04:59:28;3.73;;;3.43;;
11620;SDS011;5866;49.094;11.900;2023-02-01T05:01:56;4.30;;;3.90;;
11620;SDS011;5866;49.094;11.900;2023-02-01T05:04:23;3.83;;;3.37;;
11620;SDS011;5866;49.094;11.900;2023-02-01T05:06:51;3.30;;;3.00;;
11620;SDS011;5866;49.094;11.900;2023-02-01T05:09:19;5.93;;;3.60;;
11620;SDS011;5866;49.094;11.900;2023-02-01T05:11:47;4.53;;;4.00;;
11620;SDS011;5866;49.094;11.900;2023-02-01T05:14:34;3.83;;;3.53;;
11620;SDS011;5866;49.094;11.900;2023-02-01T05:17:02;5.27;;;3.57;;
11620;SDS011;5866;49.094;11.900;2023-02-01T05:19:29;3.50;;;3.20;;
11620;SDS011;5866;49.094;11.900;2023-02-01T05:21:56;3.53;;;3.23;;
11620;SDS011;5866;49.094;11.900;2023-02-01T05:24:24;5.03;;;4.03;;
11620;SDS011;5866;49.094;11.900;2023-02-01T05:26:53;4.50;;;4.10;;
11620;SDS011;5866;49.094;11.900;2023-02-01T05:29:20;4.33;;;3.93;;
11620;SDS011;5866;49.094;11.900;2023-02-01T05:31:49;5.23;;;4.10;;
11620;SDS011;5866;49.094;11.900;2023-02-01T05:34:17;4.20;;;3.80;;
11620;SDS011;5866;49.094;11.900;2023-02-01T05:36:44;4.80;;;4.40;;
11620;SDS011;5866;49.094;11.900;2023-02-01T05:39:12;4.33;;;3.90;;
11620;SDS011;5866;49.094;11.900;2023-02-01T05:41:40;5.03;;;3.60;;
11620;SDS011;5866;49.094;11.900;2023-02-01T05:44:07;5.20;;;3.83;;
11620;SDS011;5866;49.094;11.900;2023-02-01T05:46:35;4.87;;;4.40;;
11620;SDS011;5866;49.094;11.900;2023-02-01T05:49:04;4.80;;;4.30;;
11620;SDS011;5866;49.094;11.900;2023-02-01T05:51:32;4.03;;;3.70;;
11620;SDS011;5866;49.094;11.900;2023-02-01T05:54:00;6.30;;;3.80;;
11620;SDS011;5866;49.094;11.900;2023-02-01T05:56:27;4.47;;;3.93;;
11620;SDS011;5866;49.094;11.900;2023-02-01T05:58:55;4.00;;;3.70;;
11620;SDS011;5866;49.094;11.900;2023-02-01T06:01:22;3.77;;;3.47;;
11620;SDS011;5866;49.094;11.900;2023-02-01T06:03:50;4.53;;;4.23;;
11620;SDS011;5866;49.094;11.900;2023-02-01T06:06:18;3.70;;;3.40;;
11620;SDS011;5866;49.094;11.900;2023-02-01T06:08:46;5.47;;;4.93;;
11620;SDS011;5866;49.094;11.900;2023-02-01T06:11:14;4.73;;;4.33;;
11620;SDS011;5866;49.094;11.900;2023-02-01T06:13:57;4.73;;;4.33;;
11620;SDS011;5866;49.094;11.900;2023-02-01T06:16:25;4.17;;;3.87;;
11620;SDS011;5866;49.094;11.900;2023-02-01T06:18:53;6.27;;;3.77;;
11620;SDS011;5866;49.094;11.900;2023-02-01T06:21:22;5.63;;;4.93;;
11620;SDS011;5866;49.094;11.900;2023-02-01T06:23:50;5.50;;;5.03;;
11620;SDS011;5866;49.094;11.900;2023-02-01T06:26:18;4.93;;;4.43;;
11620;SDS011;5866;49.094;11.900;2023-02-01T06:28:46;4.97;;;4.47;;
11620;SDS011;5866;49.094;11.900;2023-02-01T06:31:13;4.97;;;4.57;;
11620;SDS011;5866;49.094;11.900;2023-02-01T06:33:41;4.20;;;3.80;;
11620;SDS011;5866;49.094;11.900;2023-02-01T06:36:09;4.47;;;4.17;;
11620;SDS011;5866;49.094;11.900;2023-02-01T06:38:39;8.60;;;8.10;;
11620;SDS011;5866;49.094;11.900;2023-02-01T06:41:07;5.30;;;5.00;;
11620;SDS011;5866;49.094;11.900;2023-02-01T06:43:35;4.73;;;4.33;;
11620;SDS011;5866;49.094;11.900;2023-02-01T06:46:04;5.30;;;4.80;;
11620;SDS011;5866;49.094;11.900;2023-02-01T06:48:33;5.60;;;5.10;;
11620;SDS011;5866;49.094;11.900;2023-02-01T06:51:01;4.27;;;3.93;;
11620;SDS011;5866;49.094;11.900;2023-02-01T06:53:28;10.40;;;9.60;;
11620;SDS011;5866;49.094;11.900;2023-02-01T06:55:58;3.50;;;3.23;;
11620;SDS011;5866;49.094;11.900;2023-02-01T06:58:28;5.20;;;4.70;;
11620;SDS011;5866;49.094;11.900;2023-02-01T07:00:55;19.10;;;17.80;;
11620;SDS011;5866;49.094;11.900;2023-02-01T07:03:24;11.73;;;7.27;;
11620;SDS011;5866;49.094;11.900;2023-02-01T07:05:54;5.27;;;4.83;;
11620;SDS011;5866;49.094;11.900;2023-02-01T07:08:22;13.53;;;12.63;;
11620;SDS011;5866;49.094;11.900;2023-02-01T07:10:50;8.07;;;7.40;;
11620;SDS011;5866;49.094;11.900;2023-02-01T07:13:19;5.70;;;4.63;;
11620;SDS011;5866;49.094;11.900;2023-02-01T07:15:46;7.60;;;7.03;;
11620;SDS011;5866;49.094;11.900;2023-02-01T07:18:14;5.90;;;5.40;;
11620;SDS011;5866;49.094;11.900;2023-02-01T07:20:42;5.77;;;4.77;;
11620;SDS011;5866;49.094;11.900;2023-02-01T07:23:10;4.80;;;4.43;;
11620;SDS011;5866;49.094;11.900;2023-02-01T07:25:37;5.23;;;4.73;;
11620;SDS011;5866;49.094;11.900;2023-02-01T07:28:05;5.60;;;5.10;;
11620;SDS011;5866;49.094;11.900;2023-02-01T07:30:34;4.40;;;3.60;;
11620;SDS011;5866;49.094;11.900;2023-02-01T07:33:01;5.00;;;4.50;;
11620;SDS011;5866;49.094;11.900;2023-02-01T07:35:29;5.25;;;4.93;;
11620;SDS011;5866;49.094;11.900;2023-02-01T07:37:57;4.73;;;4.33;;
11620;SDS011;5866;49.094;11.900;2023-02-01T07:40:33;7.30;;;5.30;;
11620;SDS011;5866;49.094;11.900;2023-02-01T07:43:01;5.93;;;5.30;;
11620;SDS011;5866;49.094;11.900;2023-02-01T07:45:28;6.60;;;6.00;;
11620;SDS011;5866;49.094;11.900;2023-02-01T07:47:57;5.80;;;5.23;;
11620;SDS011;5866;49.094;11.900;2023-02-01T07:50:25;5.20;;;4.80;;
11620;SDS011;5866;49.094;11.900;2023-02-01T07:52:52;7.57;;;5.60;;
11620;SDS011;5866;49.094;11.900;2023-02-01T07:55:20;7.47;;;5.47;;
11620;SDS011;5866;49.094;11.900;2023-02-01T07:57:48;5.40;;;4.90;;
11620;SDS011;5866;49.094;11.900;2023-02-01T08:00:16;4.90;;;4.40;;
11620;SDS011;5866;49.094;11.900;2023-02-01T08:03:04;5.47;;;4.97;;
11620;SDS011;5866;49.094;11.900;2023-02-01T08:05:32;5.90;;;5.30;;
11620;SDS011;5866;49.094;11.900;2023-02-01T08:07:59;5.37;;;4.90;;
11620;SDS011;5866;49.094;11.900;2023-02-01T08:10:27;6.00;;;5.43;;
11620;SDS011;5866;49.094;11.900;2023-02-01T08:12:57;6.60;;;6.00;;
11620;SDS011;5866;49.094;11.900;2023-02-01T08:15:26;3.97;;;3.67;;
11620;SDS011;5866;49.094;11.900;2023-02-01T08:17:54;6.30;;;5.70;;
11620;SDS011;5866;49.094;11.900;2023-02-01T08:20:23;7.10;;;6.50;;
11620;SDS011;5866;49.094;11.900;2023-02-01T08:22:52;5.37;;;4.53;;
11620;SDS011;5866;49.094;11.900;2023-02-01T08:25:20;5.63;;;5.13;;
11620;SDS011;5866;49.094;11.900;2023-02-01T08:27:47;6.37;;;5.83;;
11620;SDS011;5866;49.094;11.900;2023-02-01T08:30:16;5.67;;;4.93;;
11620;SDS011;5866;49.094;11.900;2023-02-01T08:32:43;6.40;;;5.80;;
11620;SDS011;5866;49.094;11.900;2023-02-01T08:35:11;6.03;;;5.50;;
11620;SDS011;5866;49.094;11.900;2023-02-01T08:37:40;5.13;;;4.70;;
11620;SDS011;5866;49.094;11.900;2023-02-01T08:40:08;5.77;;;5.27;;
11620;SDS011;5866;49.094;11.900;2023-02-01T08:42:36;5.13;;;4.63;;
11620;SDS011;5866;49.094;11.900;2023-02-01T08:45:20;5.40;;;4.90;;
11620;SDS011;5866;49.094;11.900;2023-02-01T08:47:49;6.73;;;6.13;;
11620;SDS011;5866;49.094;11.900;2023-02-01T08:50:17;6.13;;;5.73;;
11620;SDS011;5866;49.094;11.900;2023-02-01T08:52:47;4.47;;;4.17;;
11620;SDS011;5866;49.094;11.900;2023-02-01T08:55:15;7.57;;;5.10;;
11620;SDS011;5866;49.094;11.900;2023-02-01T08:57:42;6.20;;;3.90;;
11620;SDS011;5866;49.094;11.900;2023-02-01T09:00:11;3.70;;;3.40;;
11620;SDS011;5866;49.094;11.900;2023-02-01T09:02:42;5.03;;;3.80;;
11620;SDS011;5866;49.094;11.900;2023-02-01T09:05:10;8.80;;;5.00;;
11620;SDS011;5866;49.094;11.900;2023-02-01T09:07:40;17.40;;;16.30;;
11620;SDS011;5866;49.094;11.900;2023-02-01T09:10:09;10.97;;;10.20;;
11620;SDS011;5866;49.094;11.900;2023-02-01T09:12:37;13.97;;;12.90;;
11620;SDS011;5866;49.094;11.900;2023-02-01T09:15:05;30.97;;;29.27;;
11620;SDS011;5866;49.094;11.900;2023-02-01T09:17:34;28.53;;;26.53;;
11620;SDS011;5866;49.094;11.900;2023-02-01T09:20:02;11.70;;;10.90;;
11620;SDS011;5866;49.094;11.900;2023-02-01T09:22:30;26.77;;;25.27;;
11620;SDS011;5866;49.094;11.900;2023-02-01T09:24:58;14.17;;;13.23;;
11620;SDS011;5866;49.094;11.900;2023-02-01T09:27:27;14.17;;;13.27;;
11620;SDS011;5866;49.094;11.900;2023-02-01T09:29:54;8.50;;;8.00;;
11620;SDS011;5866;49.094;11.900;2023-02-01T09:32:22;8.70;;;8.10;;
11620;SDS011;5866;49.094;11.900;2023-02-01T09:34:51;8.83;;;8.23;;
11620;SDS011;5866;49.094;11.900;2023-02-01T09:37:19;8.70;;;7.87;;
11620;SDS011;5866;49.094;11.900;2023-02-01T09:39:47;15.73;;;14.73;;
11620;SDS011;5866;49.094;11.900;2023-02-01T09:42:23;35.37;;;33.27;;
11620;SDS011;5866;49.094;11.900;2023-02-01T09:45:14;18.73;;;17.63;;
11620;SDS011;5866;49.094;11.900;2023-02-01T09:47:48;26.57;;;24.97;;
11620;SDS011;5866;49.094;11.900;2023-02-01T09:50:19;33.23;;;31.33;;
11620;SDS011;5866;49.094;11.900;2023-02-01T09:52:52;22.67;;;21.33;;
11620;SDS011;5866;49.094;11.900;2023-02-01T09:55:32;22.50;;;21.13;;
11620;SDS011;5866;49.094;11.900;2023-02-01T09:58:07;27.43;;;25.83;;
11620;SDS011;5866;49.094;11.900;2023-02-01T10:00:39;15.63;;;14.40;;
11620;SDS011;5866;49.094;11.900;2023-02-01T10:03:11;6.13;;;4.73;;
11620;SDS011;5866;49.094;11.900;2023-02-01T10:05:47;6.60;;;5.97;;
11620;SDS011;5866;49.094;11.900;2023-02-01T10:08:30;10.47;;;9.23;;
11620;SDS011;5866;49.094;11.900;2023-02-01T10:11:07;4.90;;;4.30;;
11620;SDS011;5866;49.094;11.900;2023-02-01T10:13:54;9.57;;;7.93;;
11620;SDS011;5866;49.094;11.900;2023-02-01T10:16:35;9.53;;;8.73;;
11620;SDS011;5866;49.094;11.900;2023-02-01T10:19:16;8.87;;;7.80;;
11620;SDS011;5866;49.094;11.900;2023-02-01T10:21:52;14.33;;;13.37;;
11620;SDS011;5866;49.094;11.900;2023-02-01T10:24:30;18.47;;;17.40;;
11620;SDS011;5866;49.094;11.900;2023-02-01T10:27:08;9.03;;;8.43;;
11620;SDS011;5866;49.094;11.900;2023-02-01T10:29:42;8.47;;;7.53;;
11620;SDS011;5866;49.094;11.900;2023-02-01T10:32:13;12.63;;;11.57;;
11620;SDS011;5866;49.094;11.900;2023-02-01T10:34:43;16.87;;;15.70;;
11620;SDS011;5866;49.094;11.900;2023-02-01T10:37:16;9.03;;;8.33;;
11620;SDS011;5866;49.094;11.900;2023-02-01T10:39:52;18.47;;;16.77;;
11620;SDS011;5866;49.094;11.900;2023-02-01T10:42:24;12.27;;;11.23;;
11620;SDS011;5866;49.094;11.900;2023-02-01T10:44:55;21.80;;;20.13;;
11620;SDS011;5866;49.094;11.900;2023-02-01T10:47:25;20.20;;;18.60;;
11620;SDS011;5866;49.094;11.900;2023-02-01T10:49:55;16.10;;;14.90;;
11620;SDS011;5866;49.094;11.900;2023-02-01T10:52:31;12.10;;;11.23;;
11620;SDS011;5866;49.094;11.900;2023-02-01T10:57:57;4.13;;;3.63;;
11620;SDS011;5866;49.094;11.900;2023-02-01T11:00:27;13.03;;;7.87;;
11620;SDS011;5866;49.094;11.900;2023-02-01T11:03:00;13.30;;;12.43;;
11620;SDS011;5866;49.094;11.900;2023-02-01T11:05:47;4.47;;;4.07;;
11620;SDS011;5866;49.094;11.900;2023-02-01T11:08:15;14.37;;;12.90;;
11620;SDS011;5866;49.094;11.900;2023-02-01T11:10:45;3.97;;;3.43;;
11620;SDS011;5866;49.094;11.900;2023-02-01T11:13:13;6.63;;;5.00;;
11620;SDS011;5866;49.094;11.900;2023-02-01T11:15:45;4.33;;;2.80;;
11620;SDS011;5866;49.094;11.900;2023-02-01T11:18:15;4.00;;;3.60;;
11620;SDS011;5866;49.094;11.900;2023-02-01T11:20:44;8.37;;;3.97;;
11620;SDS011;5866;49.094;11.900;2023-02-01T11:23:16;7.03;;;4.70;;
11620;SDS011;5866;49.094;11.900;2023-02-01T11:25:48;11.53;;;10.73;;
11620;SDS011;5866;49.094;11.900;2023-02-01T11:28:17;8.10;;;7.30;;
11620;SDS011;5866;49.094;11.900;2023-02-01T11:30:49;10.70;;;9.97;;
11620;SDS011;5866;49.094;11.900;2023-02-01T11:33:18;16.67;;;15.53;;
11620;SDS011;5866;49.094;11.900;2023-02-01T11:35:50;38.30;;;35.67;;
11620;SDS011;5866;49.094;11.900;2023-02-01T11:38:20;6.17;;;5.60;;
11620;SDS011;5866;49.094;11.900;2023-02-01T11:40:49;6.87;;;6.37;;
11620;SDS011;5866;49.094;11.900;2023-02-01T11:43:18;7.63;;;6.47;;
11620;SDS011;5866;49.094;11.900;2023-02-01T11:45:56;4.33;;;4.07;;
11620;SDS011;5866;49.094;11.900;2023-02-01T11:48:25;5.57;;;3.13;;
11620;SDS011;5866;49.094;11.900;2023-02-01T11:50:58;9.23;;;4.60;;
11620;SDS011;5866;49.094;11.900;2023-02-01T11:53:55;13.63;;;12.33;;
11620;SDS011;5866;49.094;11.900;2023-02-01T11:56:33;7.20;;;3.90;;
11620;SDS011;5866;49.094;11.900;2023-02-01T11:59:16;13.70;;;12.77;;
11620;SDS011;5866;49.094;11.900;2023-02-01T12:02:07;16.53;;;15.40;;
11620;SDS011;5866;49.094;11.900;2023-02-01T12:05:00;13.57;;;8.93;;
11620;SDS011;5866;49.094;11.900;2023-02-01T12:07:46;10.27;;;9.27;;
11620;SDS011;5866;49.094;11.900;2023-02-01T12:10:28;11.27;;;10.40;;
11620;SDS011;5866;49.094;11.900;2023-02-01T12:13:09;7.97;;;5.90;;
11620;SDS011;5866;49.094;11.900;2023-02-01T12:15:54;3.80;;;3.43;;
11620;SDS011;5866;49.094;11.900;2023-02-01T12:21:22;5.00;;;4.57;;
11620;SDS011;5866;49.094;11.900;2023-02-01T12:24:01;2.77;;;2.47;;
11620;SDS011;5866;49.094;11.900;2023-02-01T12:26:45;2.63;;;2.30;;
11620;SDS011;5866;49.094;11.900;2023-02-01T12:32:31;6.80;;;3.10;;
11620;SDS011;5866;49.094;11.900;2023-02-01T12:35:16;4.00;;;2.80;;
11620;SDS011;5866;49.094;11.900;2023-02-01T12:38:03;3.83;;;2.70;;
11620;SDS011;5866;49.094;11.900;2023-02-01T12:40:43;10.37;;;9.57;;
11620;SDS011;5866;49.094;11.900;2023-02-01T12:43:25;5.63;;;2.90;;
11620;SDS011;5866;49.094;11.900;2023-02-01T12:46:06;3.03;;;2.70;;
11620;SDS011;5866;49.094;11.900;2023-02-01T12:48:39;6.23;;;3.73;;
11620;SDS011;5866;49.094;11.900;2023-02-01T12:51:18;29.77;;;27.83;;
11620;SDS011;5866;49.094;11.900;2023-02-01T12:53:51;22.27;;;20.97;;
11620;SDS011;5866;49.094;11.900;2023-02-01T12:56:22;15.80;;;14.83;;
11620;SDS011;5866;49.094;11.900;2023-02-01T12:58:54;8.07;;;6.77;;
11620;SDS011;5866;49.094;11.900;2023-02-01T13:01:27;27.53;;;25.43;;
11620;SDS011;5866;49.094;11.900;2023-02-01T13:04:02;14.60;;;13.50;;
11620;SDS011;5866;49.094;11.900;2023-02-01T13:06:39;23.77;;;22.37;;
11620;SDS011;5866;49.094;11.900;2023-02-01T13:09:15;23.40;;;21.63;;
11620;SDS011;5866;49.094;11.900;2023-02-01T13:11:50;16.57;;;15.37;;
11620;SDS011;5866;49.094;11.900;2023-02-01T13:14:24;28.10;;;26.40;;
11620;SDS011;5866;49.094;11.900;2023-02-01T13:17:00;32.43;;;30.43;;
11620;SDS011;5866;49.094;11.900;2023-02-01T13:19:31;26.87;;;25.23;;
11620;SDS011;5866;49.094;11.900;2023-02-01T13:22:10;20.27;;;18.80;;
11620;SDS011;5866;49.094;11.900;2023-02-01T13:24:42;22.87;;;21.03;;
11620;SDS011;5866;49.094;11.900;2023-02-01T13:27:12;6.93;;;4.70;;
11620;SDS011;5866;49.094;11.900;2023-02-01T13:29:46;7.77;;;4.17;;
11620;SDS011;5866;49.094;11.900;2023-02-01T13:32:31;5.97;;;5.47;;
11620;SDS011;5866;49.094;11.900;2023-02-01T13:35:35;6.00;;;4.70;;
11620;SDS011;5866;49.094;11.900;2023-02-01T13:38:22;7.53;;;4.77;;
11620;SDS011;5866;49.094;11.900;2023-02-01T13:41:11;5.60;;;4.53;;
11620;SDS011;5866;49.094;11.900;2023-02-01T13:43:48;8.30;;;6.37;;
11620;SDS011;5866;49.094;11.900;2023-02-01T13:46:18;9.73;;;5.87;;
11620;SDS011;5866;49.094;11.900;2023-02-01T13:48:47;9.87;;;5.40;;
11620;SDS011;5866;49.094;11.900;2023-02-01T13:51:18;12.17;;;6.10;;
11620;SDS011;5866;49.094;11.900;2023-02-01T13:54:02;8.30;;;6.43;;
11620;SDS011;5866;49.094;11.900;2023-02-01T13:56:39;8.73;;;5.87;;
11620;SDS011;5866;49.094;11.900;2023-02-01T14:05:55;13.17;;;7.97;;
11620;SDS011;5866;49.094;11.900;2023-02-01T14:08:40;7.27;;;5.77;;
11620;SDS011;5866;49.094;11.900;2023-02-01T14:23:19;6.50;;;5.10;;
11620;SDS011;5866;49.094;11.900;2023-02-01T14:26:04;4.63;;;2.90;;
11620;SDS011;5866;49.094;11.900;2023-02-01T14:28:36;4.27;;;3.87;;
11620;SDS011;5866;49.094;11.900;2023-02-01T14:31:14;6.20;;;5.70;;
11620;SDS011;5866;49.094;11.900;2023-02-01T14:33:46;7.70;;;3.50;;
11620;SDS011;5866;49.094;11.900;2023-02-01T14:36:14;3.13;;;2.17;;
11620;SDS011;5866;49.094;11.900;2023-02-01T14:38:47;4.73;;;2.20;;
11620;SDS011;5866;49.094;11.900;2023-02-01T14:41:26;4.77;;;2.77;;
11620;SDS011;5866;49.094;11.900;2023-02-01T14:44:22;5.53;;;3.33;;
11620;SDS011;5866;49.094;11.900;2023-02-01T14:47:25;5.03;;;2.10;;
11620;SDS011;5866;49.094;11.900;2023-02-01T14:49:56;8.37;;;2.30;;
11620;SDS011;5866;49.094;11.900;2023-02-01T14:52:30;10.33;;;3.03;;
11620;SDS011;5866;49.094;11.900;2023-02-01T14:55:02;4.10;;;2.47;;
11620;SDS011;5866;49.094;11.900;2023-02-01T14:57:33;8.50;;;3.27;;
11620;SDS011;5866;49.094;11.900;2023-02-01T15:00:11;2.93;;;2.13;;
11620;SDS011;5866;49.094;11.900;2023-02-01T15:02:44;5.73;;;2.63;;
11620;SDS011;5866;49.094;11.900;2023-02-01T15:05:27;6.20;;;2.97;;
11620;SDS011;5866;49.094;11.900;2023-02-01T15:07:58;8.43;;;3.13;;
11620;SDS011;5866;49.094;11.900;2023-02-01T15:10:32;5.23;;;2.70;;
11620;SDS011;5866;49.094;11.900;2023-02-01T15:13:11;7.43;;;4.67;;
11620;SDS011;5866;49.094;11.900;2023-02-01T15:15:46;2.60;;;2.40;;
11620;SDS011;5866;49.094;11.900;2023-02-01T15:18:27;2.70;;;2.50;;
11620;SDS011;5866;49.094;11.900;2023-02-01T15:20:58;4.20;;;2.83;;
11620;SDS011;5866;49.094;11.900;2023-02-01T15:23:46;13.93;;;12.73;;
11620;SDS011;5866;49.094;11.900;2023-02-01T15:29:00;2.60;;;2.40;;
11620;SDS011;5866;49.094;11.900;2023-02-01T15:31:32;8.13;;;4.87;;
11620;SDS011;5866;49.094;11.900;2023-02-01T15:34:02;5.33;;;2.97;;
11620;SDS011;5866;49.094;11.900;2023-02-01T15:36:30;4.47;;;2.80;;
11620;SDS011;5866;49.094;11.900;2023-02-01T15:39:11;15.47;;;11.43;;
11620;SDS011;5866;49.094;11.900;2023-02-01T15:41:45;7.70;;;3.40;;
11620;SDS011;5866;49.094;11.900;2023-02-01T15:44:19;4.73;;;2.63;;